BHQ weather

Broken Hill Airport
Broken Hill, New South Wales, Australia

Public forecast

Using degrees Celsius for public forecast. Weather courtesy of forecast.io.

Current aviation weather report (METAR) for Broken Hill Airport

Retrieved 2020/01/19 23:00 UTC (52 minutes ago):

YBHI 192300Z AUTO 23017KT 9999 // BKN027 OVC033 19/11 Q1007

Closest aviation forecast (TAF) to Broken Hill Airport

Forecast is more than 12 hours old.

Closest forecast is Whyalla Airport, 210.2 nm (389.2 km) WSW. Retrieved 2018/11/15 18:03 UTC (1 year ago):

TAF YWHA 151701Z 1518/1608 VRB05KT CAVOK FM152300 18012KT CAVOK FM160200 18018KT CAVOK